sensor_id;sensor_type;location;lat;lon;timestamp;P1;durP1;ratioP1;P2;durP2;ratioP2
78079;SDS011;67298;51.322;5.958;2023-12-20T00:03:12;14.7;;;9.8;;
78079;SDS011;67298;51.322;5.958;2023-12-20T00:07:51;14.0;;;9.9;;
78079;SDS011;67298;51.322;5.958;2023-12-20T00:12:31;12.1;;;10.9;;
78079;SDS011;67298;51.322;5.958;2023-12-20T00:17:10;14.8;;;11.1;;
78079;SDS011;67298;51.322;5.958;2023-12-20T00:21:50;11.5;;;8.5;;
78079;SDS011;67298;51.322;5.958;2023-12-20T00:26:29;14.3;;;10.0;;
78079;SDS011;67298;51.322;5.958;2023-12-20T00:31:09;16.7;;;8.9;;
78079;SDS011;67298;51.322;5.958;2023-12-20T00:35:48;12.3;;;9.0;;
78079;SDS011;67298;51.322;5.958;2023-12-20T00:40:28;15.9;;;10.2;;
78079;SDS011;67298;51.322;5.958;2023-12-20T00:45:07;17.6;;;9.7;;
78079;SDS011;67298;51.322;5.958;2023-12-20T00:49:47;6.7;;;4.5;;
78079;SDS011;67298;51.322;5.958;2023-12-20T00:54:26;15.3;;;10.4;;
78079;SDS011;67298;51.322;5.958;2023-12-20T00:59:05;13.4;;;10.2;;
78079;SDS011;67298;51.322;5.958;2023-12-20T01:03:47;15.7;;;10.4;;
78079;SDS011;67298;51.322;5.958;2023-12-20T01:08:26;15.7;;;11.4;;
78079;SDS011;67298;51.322;5.958;2023-12-20T01:13:06;11.1;;;9.0;;
78079;SDS011;67298;51.322;5.958;2023-12-20T01:17:45;16.0;;;10.2;;
78079;SDS011;67298;51.322;5.958;2023-12-20T01:22:24;14.9;;;9.6;;
78079;SDS011;67298;51.322;5.958;2023-12-20T01:27:04;15.0;;;9.9;;
78079;SDS011;67298;51.322;5.958;2023-12-20T01:31:43;13.8;;;9.3;;
78079;SDS011;67298;51.322;5.958;2023-12-20T01:36:23;13.3;;;8.4;;
78079;SDS011;67298;51.322;5.958;2023-12-20T01:41:02;15.2;;;9.8;;
78079;SDS011;67298;51.322;5.958;2023-12-20T01:45:41;14.0;;;9.2;;
78079;SDS011;67298;51.322;5.958;2023-12-20T01:50:21;19.6;;;7.1;;
78079;SDS011;67298;51.322;5.958;2023-12-20T01:55:00;12.3;;;8.4;;
78079;SDS011;67298;51.322;5.958;2023-12-20T01:59:40;16.5;;;9.6;;
78079;SDS011;67298;51.322;5.958;2023-12-20T02:04:19;15.5;;;9.9;;
78079;SDS011;67298;51.322;5.958;2023-12-20T02:08:59;12.8;;;9.0;;
78079;SDS011;67298;51.322;5.958;2023-12-20T02:13:38;8.8;;;7.9;;
78079;SDS011;67298;51.322;5.958;2023-12-20T02:18:18;16.1;;;9.8;;
78079;SDS011;67298;51.322;5.958;2023-12-20T02:22:57;15.9;;;10.8;;
78079;SDS011;67298;51.322;5.958;2023-12-20T02:27:37;16.8;;;11.8;;
78079;SDS011;67298;51.322;5.958;2023-12-20T02:32:16;17.4;;;12.2;;
78079;SDS011;67298;51.322;5.958;2023-12-20T02:36:55;19.0;;;10.9;;
78079;SDS011;67298;51.322;5.958;2023-12-20T02:41:35;19.4;;;13.0;;
78079;SDS011;67298;51.322;5.958;2023-12-20T02:46:14;16.7;;;12.0;;
78079;SDS011;67298;51.322;5.958;2023-12-20T02:50:53;11.0;;;9.8;;
78079;SDS011;67298;51.322;5.958;2023-12-20T02:55:35;16.7;;;12.5;;
78079;SDS011;67298;51.322;5.958;2023-12-20T03:00:15;14.6;;;10.6;;
78079;SDS011;67298;51.322;5.958;2023-12-20T03:04:54;18.2;;;12.2;;
78079;SDS011;67298;51.322;5.958;2023-12-20T03:09:34;14.5;;;9.5;;
78079;SDS011;67298;51.322;5.958;2023-12-20T03:14:13;8.0;;;7.2;;
78079;SDS011;67298;51.322;5.958;2023-12-20T03:18:53;14.2;;;10.1;;
78079;SDS011;67298;51.322;5.958;2023-12-20T03:23:32;16.2;;;10.1;;
78079;SDS011;67298;51.322;5.958;2023-12-20T03:28:12;3.7;;;3.2;;
78079;SDS011;67298;51.322;5.958;2023-12-20T03:32:51;13.6;;;8.4;;
78079;SDS011;67298;51.322;5.958;2023-12-20T03:37:32;11.1;;;7.7;;
78079;SDS011;67298;51.322;5.958;2023-12-20T03:42:11;11.6;;;8.3;;
78079;SDS011;67298;51.322;5.958;2023-12-20T03:46:51;14.8;;;9.0;;
78079;SDS011;67298;51.322;5.958;2023-12-20T03:51:30;14.0;;;8.8;;
78079;SDS011;67298;51.322;5.958;2023-12-20T03:56:09;14.0;;;9.2;;
78079;SDS011;67298;51.322;5.958;2023-12-20T04:00:49;13.2;;;8.3;;
78079;SDS011;67298;51.322;5.958;2023-12-20T04:05:30;14.6;;;9.2;;
78079;SDS011;67298;51.322;5.958;2023-12-20T04:10:10;9.7;;;7.3;;
78079;SDS011;67298;51.322;5.958;2023-12-20T04:14:49;10.2;;;6.4;;
78079;SDS011;67298;51.322;5.958;2023-12-20T04:19:28;13.0;;;7.6;;
78079;SDS011;67298;51.322;5.958;2023-12-20T04:24:08;9.9;;;7.3;;
78079;SDS011;67298;51.322;5.958;2023-12-20T04:28:47;11.0;;;5.3;;
78079;SDS011;67298;51.322;5.958;2023-12-20T04:33:27;14.4;;;7.1;;
78079;SDS011;67298;51.322;5.958;2023-12-20T04:38:06;8.9;;;6.9;;
78079;SDS011;67298;51.322;5.958;2023-12-20T04:42:45;10.1;;;7.4;;
78079;SDS011;67298;51.322;5.958;2023-12-20T04:47:25;10.5;;;6.7;;
78079;SDS011;67298;51.322;5.958;2023-12-20T04:52:04;15.9;;;6.6;;
78079;SDS011;67298;51.322;5.958;2023-12-20T04:56:44;12.0;;;7.1;;
78079;SDS011;67298;51.322;5.958;2023-12-20T05:01:23;13.6;;;7.0;;
78079;SDS011;67298;51.322;5.958;2023-12-20T05:06:02;11.7;;;7.1;;
78079;SDS011;67298;51.322;5.958;2023-12-20T05:10:42;10.2;;;6.1;;
78079;SDS011;67298;51.322;5.958;2023-12-20T05:15:21;8.9;;;5.8;;
78079;SDS011;67298;51.322;5.958;2023-12-20T05:20:01;10.7;;;7.1;;
78079;SDS011;67298;51.322;5.958;2023-12-20T05:24:41;8.0;;;5.5;;
78079;SDS011;67298;51.322;5.958;2023-12-20T05:29:22;5.4;;;4.5;;
78079;SDS011;67298;51.322;5.958;2023-12-20T05:34:01;8.1;;;6.0;;
78079;SDS011;67298;51.322;5.958;2023-12-20T05:38:41;6.9;;;5.3;;
78079;SDS011;67298;51.322;5.958;2023-12-20T05:43:20;8.0;;;6.3;;
78079;SDS011;67298;51.322;5.958;2023-12-20T05:47:59;10.5;;;6.1;;
78079;SDS011;67298;51.322;5.958;2023-12-20T05:52:39;12.4;;;5.7;;
78079;SDS011;67298;51.322;5.958;2023-12-20T05:57:19;9.6;;;6.3;;
78079;SDS011;67298;51.322;5.958;2023-12-20T06:01:58;6.5;;;5.3;;
78079;SDS011;67298;51.322;5.958;2023-12-20T06:06:37;7.2;;;3.3;;
78079;SDS011;67298;51.322;5.958;2023-12-20T06:11:17;9.8;;;6.2;;
78079;SDS011;67298;51.322;5.958;2023-12-20T06:15:56;6.5;;;5.0;;
78079;SDS011;67298;51.322;5.958;2023-12-20T06:20:36;7.1;;;5.6;;
78079;SDS011;67298;51.322;5.958;2023-12-20T06:25:15;8.4;;;5.7;;
78079;SDS011;67298;51.322;5.958;2023-12-20T06:29:55;7.3;;;5.0;;
78079;SDS011;67298;51.322;5.958;2023-12-20T06:34:34;7.7;;;5.5;;
78079;SDS011;67298;51.322;5.958;2023-12-20T06:39:13;9.8;;;5.6;;
78079;SDS011;67298;51.322;5.958;2023-12-20T06:43:53;8.8;;;6.1;;
78079;SDS011;67298;51.322;5.958;2023-12-20T06:48:32;10.4;;;6.1;;
78079;SDS011;67298;51.322;5.958;2023-12-20T06:53:12;5.7;;;4.7;;
78079;SDS011;67298;51.322;5.958;2023-12-20T06:57:51;7.8;;;6.0;;
78079;SDS011;67298;51.322;5.958;2023-12-20T07:02:30;6.2;;;4.9;;
78079;SDS011;67298;51.322;5.958;2023-12-20T07:07:10;6.9;;;6.2;;
78079;SDS011;67298;51.322;5.958;2023-12-20T07:11:49;9.3;;;6.9;;
78079;SDS011;67298;51.322;5.958;2023-12-20T07:16:28;8.4;;;5.8;;
78079;SDS011;67298;51.322;5.958;2023-12-20T07:21:08;9.1;;;6.6;;
78079;SDS011;67298;51.322;5.958;2023-12-20T07:25:47;7.9;;;5.6;;
78079;SDS011;67298;51.322;5.958;2023-12-20T07:30:26;8.8;;;5.4;;
78079;SDS011;67298;51.322;5.958;2023-12-20T07:35:06;6.7;;;5.5;;
78079;SDS011;67298;51.322;5.958;2023-12-20T07:39:45;6.5;;;4.4;;
78079;SDS011;67298;51.322;5.958;2023-12-20T07:44:25;6.1;;;4.7;;
78079;SDS011;67298;51.322;5.958;2023-12-20T07:49:06;9.4;;;5.6;;
78079;SDS011;67298;51.322;5.958;2023-12-20T07:53:45;7.6;;;5.1;;
78079;SDS011;67298;51.322;5.958;2023-12-20T07:58:25;7.7;;;5.4;;
78079;SDS011;67298;51.322;5.958;2023-12-20T08:03:04;6.4;;;4.9;;
78079;SDS011;67298;51.322;5.958;2023-12-20T08:07:43;5.3;;;4.7;;
78079;SDS011;67298;51.322;5.958;2023-12-20T08:12:23;9.3;;;5.3;;
78079;SDS011;67298;51.322;5.958;2023-12-20T08:17:02;6.3;;;4.4;;
78079;SDS011;67298;51.322;5.958;2023-12-20T08:21:41;6.8;;;5.1;;
78079;SDS011;67298;51.322;5.958;2023-12-20T08:26:21;6.8;;;5.6;;
78079;SDS011;67298;51.322;5.958;2023-12-20T08:31:00;5.5;;;4.9;;
78079;SDS011;67298;51.322;5.958;2023-12-20T08:35:40;7.0;;;5.5;;
78079;SDS011;67298;51.322;5.958;2023-12-20T08:40:19;8.4;;;6.6;;
78079;SDS011;67298;51.322;5.958;2023-12-20T08:44:58;0.5;;;0.5;;
78079;SDS011;67298;51.322;5.958;2023-12-20T08:49:38;10.0;;;6.6;;
78079;SDS011;67298;51.322;5.958;2023-12-20T08:54:17;6.9;;;5.5;;
78079;SDS011;67298;51.322;5.958;2023-12-20T08:58:57;9.2;;;6.6;;
78079;SDS011;67298;51.322;5.958;2023-12-20T09:03:36;9.2;;;6.3;;
78079;SDS011;67298;51.322;5.958;2023-12-20T09:08:16;8.9;;;5.9;;
78079;SDS011;67298;51.322;5.958;2023-12-20T09:12:55;9.7;;;6.9;;
78079;SDS011;67298;51.322;5.958;2023-12-20T09:17:34;8.5;;;6.9;;
78079;SDS011;67298;51.322;5.958;2023-12-20T09:22:14;9.0;;;7.4;;
78079;SDS011;67298;51.322;5.958;2023-12-20T09:26:53;9.6;;;6.5;;
78079;SDS011;67298;51.322;5.958;2023-12-20T09:31:33;9.3;;;6.6;;
78079;SDS011;67298;51.322;5.958;2023-12-20T09:36:12;9.7;;;7.1;;
78079;SDS011;67298;51.322;5.958;2023-12-20T09:40:52;8.6;;;6.5;;
78079;SDS011;67298;51.322;5.958;2023-12-20T09:45:31;10.3;;;7.8;;
78079;SDS011;67298;51.322;5.958;2023-12-20T09:50:11;17.6;;;12.0;;
78079;SDS011;67298;51.322;5.958;2023-12-20T09:54:50;18.4;;;12.4;;
78079;SDS011;67298;51.322;5.958;2023-12-20T09:59:30;20.8;;;13.7;;
78079;SDS011;67298;51.322;5.958;2023-12-20T10:04:09;21.8;;;13.1;;
78079;SDS011;67298;51.322;5.958;2023-12-20T10:08:49;18.1;;;12.4;;
78079;SDS011;67298;51.322;5.958;2023-12-20T10:13:28;19.9;;;13.7;;
78079;SDS011;67298;51.322;5.958;2023-12-20T10:18:08;21.9;;;15.3;;
78079;SDS011;67298;51.322;5.958;2023-12-20T10:22:47;24.4;;;15.9;;
78079;SDS011;67298;51.322;5.958;2023-12-20T10:27:27;22.2;;;15.8;;
78079;SDS011;67298;51.322;5.958;2023-12-20T10:32:06;19.1;;;11.6;;
78079;SDS011;67298;51.322;5.958;2023-12-20T10:36:45;24.1;;;14.9;;
78079;SDS011;67298;51.322;5.958;2023-12-20T10:41:25;20.8;;;12.4;;
78079;SDS011;67298;51.322;5.958;2023-12-20T10:46:07;18.0;;;10.5;;
78079;SDS011;67298;51.322;5.958;2023-12-20T10:50:49;25.2;;;14.9;;
78079;SDS011;67298;51.322;5.958;2023-12-20T10:55:28;21.3;;;12.2;;
78079;SDS011;67298;51.322;5.958;2023-12-20T11:00:08;24.2;;;16.1;;
78079;SDS011;67298;51.322;5.958;2023-12-20T11:04:50;24.2;;;14.2;;
78079;SDS011;67298;51.322;5.958;2023-12-20T11:09:29;18.7;;;12.1;;
78079;SDS011;67298;51.322;5.958;2023-12-20T11:14:09;23.1;;;15.0;;
78079;SDS011;67298;51.322;5.958;2023-12-20T11:18:49;20.4;;;12.6;;
78079;SDS011;67298;51.322;5.958;2023-12-20T11:23:28;13.7;;;10.6;;
78079;SDS011;67298;51.322;5.958;2023-12-20T11:28:08;25.3;;;15.8;;
78079;SDS011;67298;51.322;5.958;2023-12-20T11:32:48;20.6;;;13.9;;
78079;SDS011;67298;51.322;5.958;2023-12-20T11:37:28;24.2;;;16.0;;
78079;SDS011;67298;51.322;5.958;2023-12-20T11:42:08;24.5;;;15.3;;
78079;SDS011;67298;51.322;5.958;2023-12-20T11:46:48;22.1;;;12.1;;
78079;SDS011;67298;51.322;5.958;2023-12-20T11:51:27;25.8;;;16.5;;
78079;SDS011;67298;51.322;5.958;2023-12-20T11:56:07;26.6;;;14.5;;
78079;SDS011;67298;51.322;5.958;2023-12-20T12:00:49;30.2;;;17.2;;
78079;SDS011;67298;51.322;5.958;2023-12-20T12:05:32;33.7;;;18.3;;
78079;SDS011;67298;51.322;5.958;2023-12-20T12:10:15;28.6;;;16.5;;
78079;SDS011;67298;51.322;5.958;2023-12-20T12:14:58;31.4;;;17.9;;
78079;SDS011;67298;51.322;5.958;2023-12-20T12:19:39;32.4;;;17.3;;
78079;SDS011;67298;51.322;5.958;2023-12-20T12:24:37;21.0;;;11.0;;
78079;SDS011;67298;51.322;5.958;2023-12-20T12:29:18;33.2;;;17.8;;
78079;SDS011;67298;51.322;5.958;2023-12-20T12:34:06;21.9;;;12.7;;
78079;SDS011;67298;51.322;5.958;2023-12-20T12:38:46;32.1;;;17.1;;
78079;SDS011;67298;51.322;5.958;2023-12-20T12:43:28;27.6;;;15.7;;
78079;SDS011;67298;51.322;5.958;2023-12-20T12:48:08;24.5;;;13.6;;
78079;SDS011;67298;51.322;5.958;2023-12-20T12:52:48;29.9;;;15.9;;
78079;SDS011;67298;51.322;5.958;2023-12-20T12:57:28;33.3;;;16.8;;
78079;SDS011;67298;51.322;5.958;2023-12-20T13:02:08;34.3;;;17.7;;
78079;SDS011;67298;51.322;5.958;2023-12-20T13:06:48;33.0;;;17.4;;
78079;SDS011;67298;51.322;5.958;2023-12-20T13:11:27;28.2;;;15.7;;
78079;SDS011;67298;51.322;5.958;2023-12-20T13:16:07;33.8;;;17.9;;
78079;SDS011;67298;51.322;5.958;2023-12-20T13:20:49;34.7;;;16.8;;
78079;SDS011;67298;51.322;5.958;2023-12-20T13:25:34;26.3;;;13.4;;
78079;SDS011;67298;51.322;5.958;2023-12-20T13:30:13;34.3;;;18.3;;
78079;SDS011;67298;51.322;5.958;2023-12-20T13:34:53;34.2;;;17.7;;
78079;SDS011;67298;51.322;5.958;2023-12-20T13:39:36;39.0;;;19.0;;
78079;SDS011;67298;51.322;5.958;2023-12-20T13:44:15;33.7;;;17.6;;
78079;SDS011;67298;51.322;5.958;2023-12-20T13:48:54;41.3;;;18.7;;
78079;SDS011;67298;51.322;5.958;2023-12-20T13:53:34;39.3;;;19.2;;
78079;SDS011;67298;51.322;5.958;2023-12-20T13:58:13;36.1;;;18.1;;
78079;SDS011;67298;51.322;5.958;2023-12-20T14:02:53;23.0;;;11.2;;
78079;SDS011;67298;51.322;5.958;2023-12-20T14:07:32;38.8;;;20.0;;
78079;SDS011;67298;51.322;5.958;2023-12-20T14:12:11;33.0;;;17.3;;
78079;SDS011;67298;51.322;5.958;2023-12-20T14:16:51;37.2;;;19.0;;
78079;SDS011;67298;51.322;5.958;2023-12-20T14:21:30;35.1;;;18.2;;
78079;SDS011;67298;51.322;5.958;2023-12-20T14:26:10;35.0;;;16.0;;
78079;SDS011;67298;51.322;5.958;2023-12-20T14:30:49;37.9;;;18.2;;
78079;SDS011;67298;51.322;5.958;2023-12-20T14:35:29;34.0;;;16.6;;
78079;SDS011;67298;51.322;5.958;2023-12-20T14:40:08;38.5;;;19.0;;
78079;SDS011;67298;51.322;5.958;2023-12-20T14:44:50;36.0;;;17.2;;
78079;SDS011;67298;51.322;5.958;2023-12-20T14:49:29;34.1;;;17.4;;
78079;SDS011;67298;51.322;5.958;2023-12-20T14:54:08;37.6;;;18.6;;
78079;SDS011;67298;51.322;5.958;2023-12-20T14:58:48;35.9;;;18.4;;
78079;SDS011;67298;51.322;5.958;2023-12-20T15:03:27;33.9;;;15.9;;
78079;SDS011;67298;51.322;5.958;2023-12-20T15:08:07;42.5;;;19.1;;
78079;SDS011;67298;51.322;5.958;2023-12-20T15:12:46;45.4;;;19.5;;
78079;SDS011;67298;51.322;5.958;2023-12-20T15:17:26;43.9;;;20.4;;
78079;SDS011;67298;51.322;5.958;2023-12-20T15:22:05;41.2;;;18.8;;
78079;SDS011;67298;51.322;5.958;2023-12-20T15:26:45;37.7;;;17.9;;
78079;SDS011;67298;51.322;5.958;2023-12-20T15:31:24;44.8;;;20.0;;
78079;SDS011;67298;51.322;5.958;2023-12-20T15:36:03;45.8;;;20.7;;
78079;SDS011;67298;51.322;5.958;2023-12-20T15:40:45;49.4;;;21.9;;
78079;SDS011;67298;51.322;5.958;2023-12-20T15:45:25;45.4;;;20.4;;
78079;SDS011;67298;51.322;5.958;2023-12-20T15:50:05;42.6;;;19.1;;
78079;SDS011;67298;51.322;5.958;2023-12-20T15:54:46;43.2;;;20.8;;
78079;SDS011;67298;51.322;5.958;2023-12-20T15:59:26;36.4;;;16.7;;
78079;SDS011;67298;51.322;5.958;2023-12-20T16:04:05;41.4;;;17.2;;
78079;SDS011;67298;51.322;5.958;2023-12-20T16:08:44;43.3;;;20.3;;
78079;SDS011;67298;51.322;5.958;2023-12-20T16:13:24;39.1;;;17.9;;
78079;SDS011;67298;51.322;5.958;2023-12-20T16:18:03;43.4;;;20.1;;
78079;SDS011;67298;51.322;5.958;2023-12-20T16:22:43;39.3;;;19.6;;
78079;SDS011;67298;51.322;5.958;2023-12-20T16:27:22;46.3;;;20.7;;
78079;SDS011;67298;51.322;5.958;2023-12-20T16:32:02;46.5;;;21.9;;
78079;SDS011;67298;51.322;5.958;2023-12-20T16:36:41;37.7;;;17.6;;
78079;SDS011;67298;51.322;5.958;2023-12-20T16:41:20;13.4;;;6.4;;
78079;SDS011;67298;51.322;5.958;2023-12-20T16:46:00;43.8;;;20.1;;
78079;SDS011;67298;51.322;5.958;2023-12-20T16:50:42;47.0;;;20.6;;
78079;SDS011;67298;51.322;5.958;2023-12-20T16:55:21;43.1;;;21.2;;
78079;SDS011;67298;51.322;5.958;2023-12-20T17:00:01;35.9;;;19.0;;
78079;SDS011;67298;51.322;5.958;2023-12-20T17:04:41;30.7;;;15.0;;
78079;SDS011;67298;51.322;5.958;2023-12-20T17:09:20;37.7;;;18.7;;
78079;SDS011;67298;51.322;5.958;2023-12-20T17:13:59;38.2;;;17.9;;
78079;SDS011;67298;51.322;5.958;2023-12-20T17:18:39;42.0;;;19.8;;
78079;SDS011;67298;51.322;5.958;2023-12-20T17:23:18;35.2;;;17.6;;
78079;SDS011;67298;51.322;5.958;2023-12-20T17:27:58;30.4;;;15.0;;
78079;SDS011;67298;51.322;5.958;2023-12-20T17:32:38;39.7;;;18.9;;
78079;SDS011;67298;51.322;5.958;2023-12-20T17:37:17;37.6;;;17.1;;
78079;SDS011;67298;51.322;5.958;2023-12-20T17:41:57;28.1;;;15.9;;
78079;SDS011;67298;51.322;5.958;2023-12-20T17:46:36;38.8;;;19.2;;
78079;SDS011;67298;51.322;5.958;2023-12-20T17:51:16;32.1;;;15.9;;
78079;SDS011;67298;51.322;5.958;2023-12-20T17:55:55;39.6;;;18.7;;
78079;SDS011;67298;51.322;5.958;2023-12-20T18:00:35;34.5;;;16.0;;
78079;SDS011;67298;51.322;5.958;2023-12-20T18:05:14;28.6;;;13.4;;
78079;SDS011;67298;51.322;5.958;2023-12-20T18:09:53;37.4;;;17.8;;
78079;SDS011;67298;51.322;5.958;2023-12-20T18:14:33;37.7;;;17.3;;
78079;SDS011;67298;51.322;5.958;2023-12-20T18:19:12;37.3;;;18.5;;
78079;SDS011;67298;51.322;5.958;2023-12-20T18:23:52;37.6;;;17.2;;
78079;SDS011;67298;51.322;5.958;2023-12-20T18:28:31;32.6;;;15.8;;
78079;SDS011;67298;51.322;5.958;2023-12-20T18:33:10;35.6;;;18.6;;
78079;SDS011;67298;51.322;5.958;2023-12-20T18:37:50;34.9;;;16.9;;
78079;SDS011;67298;51.322;5.958;2023-12-20T18:42:29;29.7;;;14.2;;
78079;SDS011;67298;51.322;5.958;2023-12-20T18:47:09;33.7;;;16.6;;
78079;SDS011;67298;51.322;5.958;2023-12-20T18:51:48;41.0;;;18.9;;
78079;SDS011;67298;51.322;5.958;2023-12-20T18:56:29;40.5;;;19.4;;
78079;SDS011;67298;51.322;5.958;2023-12-20T19:01:09;35.8;;;17.3;;
78079;SDS011;67298;51.322;5.958;2023-12-20T19:05:48;32.9;;;15.6;;
78079;SDS011;67298;51.322;5.958;2023-12-20T19:10:28;35.3;;;17.7;;
78079;SDS011;67298;51.322;5.958;2023-12-20T19:15:07;37.5;;;16.8;;
78079;SDS011;67298;51.322;5.958;2023-12-20T19:19:47;18.6;;;8.4;;
78079;SDS011;67298;51.322;5.958;2023-12-20T19:24:27;37.3;;;17.2;;
78079;SDS011;67298;51.322;5.958;2023-12-20T19:29:06;33.9;;;16.1;;
78079;SDS011;67298;51.322;5.958;2023-12-20T19:33:46;35.4;;;17.3;;
78079;SDS011;67298;51.322;5.958;2023-12-20T19:38:25;36.0;;;17.0;;
78079;SDS011;67298;51.322;5.958;2023-12-20T19:43:06;37.1;;;16.5;;
78079;SDS011;67298;51.322;5.958;2023-12-20T19:47:46;37.7;;;17.4;;
78079;SDS011;67298;51.322;5.958;2023-12-20T19:52:25;40.2;;;17.9;;
78079;SDS011;67298;51.322;5.958;2023-12-20T19:57:05;43.3;;;20.7;;
78079;SDS011;67298;51.322;5.958;2023-12-20T20:01:44;39.0;;;18.0;;
78079;SDS011;67298;51.322;5.958;2023-12-20T20:06:24;38.9;;;19.3;;
78079;SDS011;67298;51.322;5.958;2023-12-20T20:11:03;42.4;;;20.3;;
78079;SDS011;67298;51.322;5.958;2023-12-20T20:15:42;33.2;;;16.6;;
78079;SDS011;67298;51.322;5.958;2023-12-20T20:20:22;23.9;;;14.0;;
78079;SDS011;67298;51.322;5.958;2023-12-20T20:25:03;35.1;;;17.4;;
78079;SDS011;67298;51.322;5.958;2023-12-20T20:29:43;32.2;;;15.5;;
78079;SDS011;67298;51.322;5.958;2023-12-20T20:34:22;35.9;;;18.3;;
78079;SDS011;67298;51.322;5.958;2023-12-20T20:39:03;38.2;;;16.0;;
78079;SDS011;67298;51.322;5.958;2023-12-20T20:43:43;24.9;;;10.0;;
78079;SDS011;67298;51.322;5.958;2023-12-20T20:48:22;36.6;;;15.4;;
78079;SDS011;67298;51.322;5.958;2023-12-20T20:53:02;32.5;;;14.7;;
78079;SDS011;67298;51.322;5.958;2023-12-20T20:57:41;36.0;;;16.6;;
78079;SDS011;67298;51.322;5.958;2023-12-20T21:02:20;35.0;;;15.7;;
78079;SDS011;67298;51.322;5.958;2023-12-20T21:07:00;32.3;;;16.3;;
78079;SDS011;67298;51.322;5.958;2023-12-20T21:11:40;37.2;;;17.9;;
78079;SDS011;67298;51.322;5.958;2023-12-20T21:16:19;33.7;;;15.3;;
78079;SDS011;67298;51.322;5.958;2023-12-20T21:20:58;32.1;;;16.4;;
78079;SDS011;67298;51.322;5.958;2023-12-20T21:25:38;35.8;;;17.8;;
78079;SDS011;67298;51.322;5.958;2023-12-20T21:30:18;36.9;;;17.0;;
78079;SDS011;67298;51.322;5.958;2023-12-20T21:34:57;37.3;;;17.8;;
78079;SDS011;67298;51.322;5.958;2023-12-20T21:39:37;40.3;;;17.5;;
78079;SDS011;67298;51.322;5.958;2023-12-20T21:44:16;35.9;;;16.1;;
78079;SDS011;67298;51.322;5.958;2023-12-20T21:48:56;40.8;;;17.2;;
78079;SDS011;67298;51.322;5.958;2023-12-20T21:53:35;35.3;;;16.1;;
78079;SDS011;67298;51.322;5.958;2023-12-20T21:58:14;13.0;;;6.8;;
78079;SDS011;67298;51.322;5.958;2023-12-20T22:02:54;38.5;;;16.6;;
78079;SDS011;67298;51.322;5.958;2023-12-20T22:07:33;26.4;;;13.4;;
78079;SDS011;67298;51.322;5.958;2023-12-20T22:12:13;32.4;;;15.2;;
78079;SDS011;67298;51.322;5.958;2023-12-20T22:16:54;35.8;;;15.9;;
78079;SDS011;67298;51.322;5.958;2023-12-20T22:21:34;24.2;;;13.3;;
78079;SDS011;67298;51.322;5.958;2023-12-20T22:26:13;42.2;;;17.7;;
78079;SDS011;67298;51.322;5.958;2023-12-20T22:30:52;31.5;;;16.3;;
78079;SDS011;67298;51.322;5.958;2023-12-20T22:35:32;40.0;;;18.7;;
78079;SDS011;67298;51.322;5.958;2023-12-20T22:40:11;40.8;;;17.3;;
78079;SDS011;67298;51.322;5.958;2023-12-20T22:44:51;36.5;;;15.3;;
78079;SDS011;67298;51.322;5.958;2023-12-20T22:49:30;40.9;;;16.6;;
78079;SDS011;67298;51.322;5.958;2023-12-20T22:54:10;36.2;;;14.8;;
78079;SDS011;67298;51.322;5.958;2023-12-20T22:58:49;31.9;;;13.8;;
78079;SDS011;67298;51.322;5.958;2023-12-20T23:03:28;38.0;;;16.4;;
78079;SDS011;67298;51.322;5.958;2023-12-20T23:08:08;38.5;;;16.5;;
78079;SDS011;67298;51.322;5.958;2023-12-20T23:12:47;41.0;;;18.2;;
78079;SDS011;67298;51.322;5.958;2023-12-20T23:17:27;36.1;;;16.4;;
78079;SDS011;67298;51.322;5.958;2023-12-20T23:22:06;26.4;;;11.6;;
78079;SDS011;67298;51.322;5.958;2023-12-20T23:26:46;36.1;;;15.9;;
78079;SDS011;67298;51.322;5.958;2023-12-20T23:31:25;37.5;;;15.6;;
78079;SDS011;67298;51.322;5.958;2023-12-20T23:36:04;37.6;;;17.6;;
78079;SDS011;67298;51.322;5.958;2023-12-20T23:40:44;35.6;;;15.5;;
78079;SDS011;67298;51.322;5.958;2023-12-20T23:45:23;35.6;;;14.2;;
78079;SDS011;67298;51.322;5.958;2023-12-20T23:50:02;36.6;;;16.1;;
78079;SDS011;67298;51.322;5.958;2023-12-20T23:54:42;39.9;;;16.6;;
78079;SDS011;67298;51.322;5.958;2023-12-20T23:59:21;43.6;;;18.6;;
